createdAt,value
2022-07-30T00:02:46.453Z,18.48
2022-07-30T00:07:54.591Z,18.44
2022-07-30T00:12:57.773Z,18.40
2022-07-30T00:18:00.589Z,18.34
2022-07-30T00:23:10.206Z,18.30
2022-07-30T00:28:13.204Z,18.26
2022-07-30T00:33:16.079Z,18.18
2022-07-30T00:38:24.209Z,18.14
2022-07-30T00:43:27.137Z,18.10
2022-07-30T00:48:29.897Z,18.07
2022-07-30T00:53:38.534Z,18.02
2022-07-30T00:58:41.372Z,18.00
2022-07-30T01:03:44.148Z,17.94
2022-07-30T01:08:52.417Z,17.90
2022-07-30T01:13:55.321Z,17.84
2022-07-30T01:19:00.277Z,17.81
2022-07-30T01:24:26.936Z,17.78
2022-07-30T01:29:37.107Z,17.76
2022-07-30T01:34:41.190Z,17.70
2022-07-30T01:39:45.045Z,17.66
2022-07-30T01:50:16.549Z,17.64
2022-07-30T01:55:25.669Z,17.52
2022-07-30T02:00:31.877Z,17.44
2022-07-30T02:05:44.041Z,17.39
2022-07-30T02:10:50.283Z,17.38
2022-07-30T02:15:57.431Z,17.33
2022-07-30T02:21:08.364Z,17.31
2022-07-30T02:26:18.262Z,17.29
2022-07-30T02:31:24.337Z,17.25
2022-07-30T02:36:34.593Z,17.22
2022-07-30T02:41:41.236Z,17.20
2022-07-30T02:46:44.771Z,17.15
2022-07-30T02:51:53.672Z,17.10
2022-07-30T02:56:58.732Z,17.03
2022-07-30T03:02:04.709Z,16.95
2022-07-30T03:07:13.889Z,16.86
2022-07-30T03:12:17.778Z,16.82
2022-07-30T03:17:23.401Z,16.75
2022-07-30T03:22:36.447Z,16.71
2022-07-30T03:27:40.258Z,16.68
2022-07-30T03:32:44.184Z,16.63
2022-07-30T03:37:52.822Z,16.58
2022-07-30T03:42:56.617Z,16.53
2022-07-30T03:48:00.183Z,16.50
2022-07-30T03:53:10.568Z,16.47
2022-07-30T03:58:13.385Z,16.46
2022-07-30T04:03:26.023Z,16.68
2022-07-30T04:08:34.419Z,16.73
2022-07-30T04:13:37.171Z,16.78
2022-07-30T04:18:44.058Z,16.83
2022-07-30T04:24:04.714Z,16.90
2022-07-30T04:39:43.004Z,17.32
2022-07-30T04:44:45.737Z,17.40
2022-07-30T04:49:50.364Z,17.53
2022-07-30T05:00:19.594Z,17.85
2022-07-30T05:05:22.914Z,17.87
2022-07-30T05:10:26.217Z,17.92
2022-07-30T05:15:37.258Z,17.96
2022-07-30T05:20:40.573Z,18.02
2022-07-30T05:25:43.288Z,18.08
2022-07-30T05:30:51.377Z,18.13
2022-07-30T05:35:54.697Z,18.17
2022-07-30T05:40:57.465Z,18.24
2022-07-30T05:46:05.507Z,18.31
2022-07-30T05:51:08.254Z,18.39
2022-07-30T05:56:11.927Z,18.43
2022-07-30T06:01:20.133Z,18.47
2022-07-30T06:06:23.504Z,18.55
2022-07-30T06:11:26.310Z,18.67
2022-07-30T06:16:34.341Z,18.79
2022-07-30T06:22:01.481Z,19.00
2022-07-30T06:27:00.326Z,19.20
2022-07-30T06:32:08.604Z,19.47
2022-07-30T06:37:11.445Z,19.73
2022-07-30T06:42:14.158Z,19.96
2022-07-30T06:47:26.155Z,20.18
2022-07-30T06:52:28.921Z,20.39
2022-07-30T06:57:31.724Z,20.58
2022-07-30T07:02:44.516Z,20.77
2022-07-30T07:07:58.191Z,20.93
2022-07-30T07:13:01.307Z,21.05
2022-07-30T07:18:09.412Z,21.19
2022-07-30T07:23:12.683Z,21.33
2022-07-30T07:28:16.556Z,21.45
2022-07-30T07:33:24.593Z,21.56
2022-07-30T07:38:27.432Z,21.65
2022-07-30T07:43:30.147Z,21.68
2022-07-30T07:48:38.150Z,21.74
2022-07-30T07:58:59.509Z,22.09
2022-07-30T08:04:03.493Z,22.27
2022-07-30T08:09:13.267Z,22.52
2022-07-30T08:14:21.268Z,22.81
2022-07-30T08:19:23.971Z,23.14
2022-07-30T08:24:27.047Z,23.49
2022-07-30T08:29:35.579Z,23.85
2022-07-30T08:34:38.326Z,24.21
2022-07-30T08:44:59.726Z,25.05
2022-07-30T08:50:03.626Z,25.25
2022-07-30T08:55:07.309Z,25.49
2022-07-30T09:00:16.676Z,25.80
2022-07-30T09:05:19.430Z,26.06
2022-07-30T09:10:25.126Z,26.30
2022-07-30T09:15:33.289Z,26.63
2022-07-30T09:20:37.278Z,26.98
2022-07-30T09:25:41.846Z,27.34
2022-07-30T09:30:54.481Z,27.66
2022-07-30T09:35:57.730Z,27.98
2022-07-30T09:46:19.529Z,28.50
2022-07-30T09:51:55.739Z,28.64
2022-07-30T09:57:25.641Z,28.92
2022-07-30T10:07:56.228Z,29.30
2022-07-30T10:13:04.518Z,29.37
2022-07-30T10:18:08.441Z,29.54
2022-07-30T10:23:19.326Z,29.56
2022-07-30T10:28:24.623Z,29.66
2022-07-30T10:33:36.629Z,29.87
2022-07-30T10:38:52.484Z,29.93
2022-07-30T10:44:23.316Z,30.12
2022-07-30T10:49:26.165Z,30.33
2022-07-30T11:00:30.970Z,30.63
2022-07-30T11:05:45.451Z,30.82
2022-07-30T11:16:07.485Z,31.24
2022-07-30T11:21:21.491Z,31.31
2022-07-30T11:26:54.160Z,31.46
2022-07-30T11:32:27.163Z,31.62
2022-07-30T11:37:32.063Z,31.77
2022-07-30T11:42:37.650Z,31.95
2022-07-30T11:47:47.316Z,32.04
2022-07-30T11:52:50.706Z,32.04
2022-07-30T11:57:53.779Z,32.18
2022-07-30T12:03:04.144Z,32.34
2022-07-30T12:08:07.732Z,32.47
2022-07-30T12:13:13.174Z,32.47
2022-07-30T12:18:27.033Z,32.48
2022-07-30T12:23:31.079Z,32.40
2022-07-30T12:28:36.657Z,32.26
2022-07-30T12:38:58.898Z,32.20
2022-07-30T12:44:01.613Z,32.11
2022-07-30T12:49:21.191Z,32.04
2022-07-30T12:54:30.825Z,31.99
2022-07-30T12:59:34.330Z,31.99
2022-07-30T13:04:40.034Z,31.98
2022-07-30T13:10:14.717Z,32.00
2022-07-30T13:15:21.070Z,32.02
2022-07-30T13:20:23.876Z,32.07
2022-07-30T13:25:38.724Z,32.14
2022-07-30T13:30:43.484Z,32.20
2022-07-30T13:35:48.793Z,32.25
2022-07-30T13:41:01.914Z,32.31
2022-07-30T13:46:06.197Z,32.39
2022-07-30T13:51:08.913Z,32.46
2022-07-30T13:56:19.785Z,32.54
2022-07-30T14:01:23.001Z,32.60
2022-07-30T14:06:25.862Z,32.60
2022-07-30T14:11:33.912Z,32.57
2022-07-30T14:16:45.202Z,32.54
2022-07-30T14:27:07.033Z,32.54
2022-07-30T14:32:09.862Z,32.50
2022-07-30T14:37:14.439Z,32.42
2022-07-30T14:42:22.729Z,32.42
2022-07-30T14:47:25.621Z,32.36
2022-07-30T14:52:28.386Z,32.27
2022-07-30T14:57:36.808Z,32.19
2022-07-30T15:02:39.850Z,32.15
2022-07-30T15:07:42.589Z,32.07
2022-07-30T15:12:50.596Z,31.96
2022-07-30T15:17:53.640Z,31.89
2022-07-30T15:22:56.412Z,31.72
2022-07-30T15:28:04.861Z,31.61
2022-07-30T15:33:07.907Z,31.59
2022-07-30T15:38:11.391Z,31.59
2022-07-30T15:43:19.444Z,31.59
2022-07-30T15:48:27.088Z,31.57
2022-07-30T15:53:30.947Z,31.50
2022-07-30T16:03:52.294Z,31.40
2022-07-30T16:08:55.041Z,31.26
2022-07-30T16:13:57.998Z,31.19
2022-07-30T16:24:24.645Z,31.12
2022-07-30T16:29:27.645Z,30.91
2022-07-30T16:34:30.449Z,30.75
2022-07-30T16:39:38.522Z,30.60
2022-07-30T16:44:41.288Z,30.53
2022-07-30T16:49:44.151Z,30.41
2022-07-30T16:54:52.227Z,30.24
2022-07-30T16:59:54.989Z,30.07
2022-07-30T17:04:57.716Z,29.93
2022-07-30T17:10:06.824Z,29.75
2022-07-30T17:15:14.052Z,29.60
2022-07-30T17:20:17.667Z,29.43
2022-07-30T17:25:26.584Z,29.29
2022-07-30T17:30:30.181Z,29.22
2022-07-30T17:35:34.224Z,29.16
2022-07-30T17:40:42.482Z,29.16
2022-07-30T17:45:45.220Z,29.31
2022-07-30T17:50:47.957Z,29.43
2022-07-30T17:55:57.586Z,29.16
2022-07-30T18:01:00.985Z,28.67
2022-07-30T18:06:03.867Z,28.20
2022-07-30T18:11:13.841Z,27.75
2022-07-30T18:16:16.775Z,27.33
2022-07-30T18:21:19.536Z,26.91
2022-07-30T18:26:27.622Z,26.53
2022-07-30T18:31:30.518Z,26.16
2022-07-30T18:36:33.232Z,25.78
2022-07-30T18:41:41.341Z,25.46
2022-07-30T18:46:44.066Z,25.17
2022-07-30T18:51:46.848Z,24.94
2022-07-30T19:02:13.829Z,24.55
2022-07-30T19:07:16.609Z,24.26
2022-07-30T19:12:19.385Z,24.03
2022-07-30T19:22:46.101Z,23.67
2022-07-30T19:27:48.932Z,23.39
2022-07-30T19:32:51.915Z,23.21
2022-07-30T19:38:00.017Z,23.02
2022-07-30T19:43:09.391Z,22.85
2022-07-30T19:48:13.066Z,22.66
2022-07-30T19:53:21.187Z,22.48
2022-07-30T19:58:24.985Z,22.29
2022-07-30T20:03:31.644Z,22.12
2022-07-30T20:08:40.137Z,21.96
2022-07-30T20:13:44.551Z,21.81
2022-07-30T20:18:48.366Z,21.66
2022-07-30T20:29:19.436Z,21.47
2022-07-30T20:34:40.852Z,21.31
2022-07-30T20:39:43.589Z,21.21
2022-07-30T20:44:51.637Z,21.13
2022-07-30T20:49:54.590Z,21.04
2022-07-30T20:54:57.774Z,20.93
2022-07-30T21:00:07.305Z,20.84
2022-07-30T21:10:29.698Z,20.73
2022-07-30T21:15:33.154Z,20.60
2022-07-30T21:20:35.861Z,20.52
2022-07-30T21:26:01.053Z,20.43
2022-07-30T21:31:07.182Z,20.31
2022-07-30T21:36:11.136Z,20.20
2022-07-30T21:41:19.243Z,20.10
2022-07-30T21:46:41.926Z,20.01
2022-07-30T21:51:46.004Z,19.91
2022-07-30T21:56:54.099Z,19.83
2022-07-30T22:02:00.951Z,19.77
2022-07-30T22:07:04.205Z,19.73
2022-07-30T22:17:37.249Z,19.66
2022-07-30T22:22:59.294Z,19.62
2022-07-30T22:28:07.335Z,19.60
2022-07-30T22:33:13.148Z,19.57
2022-07-30T22:38:16.674Z,19.50
2022-07-30T22:43:35.491Z,19.43
2022-07-30T22:48:44.024Z,19.36
2022-07-30T22:59:15.026Z,19.18
2022-07-30T23:04:17.937Z,19.11
2022-07-30T23:09:21.041Z,19.03
2022-07-30T23:12:28.380Z,19.71
2022-07-30T23:12:30.760Z,19.26
2022-07-30T23:14:29.149Z,18.96
2022-07-30T23:19:32.238Z,18.85
2022-07-30T23:24:34.980Z,18.68
2022-07-30T23:35:01.775Z,18.51
2022-07-30T23:40:04.924Z,18.36
2022-07-30T23:45:08.285Z,18.29
2022-07-30T23:50:18.058Z,18.24
2022-07-30T23:55:21.145Z,18.20
